Airfield :
LOGIN :

Register | Disclaimer

   EN    FR    IT 

 










Legend :    VFR   Marginal VFR   IFR   Intensive IFR   Very Intensive IFR
Visi :
Ceiling :
>= 8 km
>= 3000ft
5 to 8 km
1000 to 3000 ft
1500m to 5 km
500 to 1000 ft
800 to 1500m
200 to 500 ft
< 800m
< 200 ft
Symbols :   Thunderstorms  Fog  Heavy snow  Heavy precipitations  Wind > 20 kt
SIGMETs :     Misc.  Thunderstorms  Icing  Turbulence  Mountain Waves  Volcanic Ashes






- Airport Elevation : -15 ft
- IATA code : RTM


EHRD - Rotterdam Zestienhoven

CURRENT METAR :
  • 061025Z AUTO 20018KT 170V250 6000 -RA BKN005 OVC007 06/05 Q1007 RERA REDZ TEMPO 4000

EXPIRED METARs :
  • 060955Z AUTO 20019G29KT 150V230 4500 BR BKN006 OVC007 06/05 Q1007 TEMPO 6000
  • 060925Z AUTO 20018KT 8000 BKN006 OVC007 06/05 Q1008 TEMPO 6000
  • 060855Z AUTO 20018G28KT 170V230 8000 BKN006 OVC007 06/05 Q1008 TEMPO 6000
  • 060825Z AUTO 20018G31KT 170V230 3200 -UP FEW004 SCT006 BKN007 06/05 Q1009 TEMPO 6000
  • 060755Z AUTO 20018KT 170V240 5000 -RA BKN006 OVC007 05/05 Q1008 TEMPO 4000

TAF TAF EHRD
Valid from the 06 at 06:00 until the 07 at 12:00 UTC


060503Z 0606/0712 21018G28KT 6000 -RA BKN006
PROB30
TEMPO 0606/0619 2500 RADZ BR BKN004
BECMG 0618/0621 9999 NSW BKN018
BECMG 0620/0623 29014G24KT
TEMPO 0620/0623 30020G30KT 6000 SHRA BKN014 SCT018CB
PROB30
TEMPO 0620/0623 30025G35KT 4000 TSRA BKN010 SCT015CB
BECMG 0703/0706 27012KT
PROB30
TEMPO 0707/0712 6000 -SHRA SCT015TCU



MET'MAP, your aeronautical weather chart ! - Copyright ORBIFLY December 2007 - Disclaimer

ORBIFLY MET'MAP TEAM :

Programming & Development : Alexandra Zaïnal
Concept & original design : Baudouin d'Aumeries
Assistance for programming : Marc-Olivier Méhu
Technical & hardware support : Manuel Goepfert

Contact : metmap@orbifly.com




SOURCES & CREDITS :

   NOAA